createdAt,value
2018-07-20T00:00:36.824Z,19.36
2018-07-20T00:01:36.764Z,19.25
2018-07-20T00:02:36.764Z,19.32
2018-07-20T00:03:36.768Z,19.29
2018-07-20T00:04:36.760Z,19.38
2018-07-20T00:05:36.762Z,19.42
2018-07-20T00:06:36.757Z,19.28
2018-07-20T00:07:36.757Z,19.32
2018-07-20T00:08:36.753Z,19.38
2018-07-20T00:09:36.750Z,19.32
2018-07-20T00:10:36.752Z,19.31
2018-07-20T00:11:36.749Z,19.24
2018-07-20T00:12:36.747Z,19.29
2018-07-20T00:13:36.745Z,19.29
2018-07-20T00:14:36.744Z,19.31
2018-07-20T00:15:36.743Z,19.24
2018-07-20T00:16:36.769Z,19.25
2018-07-20T00:17:36.740Z,19.28
2018-07-20T00:18:36.739Z,19.23
2018-07-20T00:19:36.736Z,19.28
2018-07-20T00:20:36.734Z,19.31
2018-07-20T00:21:36.737Z,19.28
2018-07-20T00:22:36.734Z,19.25
2018-07-20T00:23:36.736Z,19.23
2018-07-20T00:24:36.727Z,19.21
2018-07-20T00:25:36.728Z,19.28
2018-07-20T00:26:36.726Z,19.18
2018-07-20T00:27:36.724Z,19.01
2018-07-20T00:28:36.724Z,19.05
2018-07-20T00:29:36.722Z,18.95
2018-07-20T00:30:36.722Z,19.02
2018-07-20T00:31:36.720Z,18.92
2018-07-20T00:32:36.715Z,18.95
2018-07-20T00:33:36.715Z,18.90
2018-07-20T00:34:36.720Z,18.79
2018-07-20T00:35:36.713Z,18.82
2018-07-20T00:36:36.715Z,18.82
2018-07-20T00:37:36.713Z,18.76
2018-07-20T00:38:36.711Z,18.79
2018-07-20T00:39:36.706Z,18.82
2018-07-20T00:40:36.710Z,18.84
2018-07-20T00:41:36.703Z,18.79
2018-07-20T00:42:36.700Z,18.82
2018-07-20T00:43:36.700Z,18.84
2018-07-20T00:44:36.697Z,18.84
2018-07-20T00:45:36.699Z,18.79
2018-07-20T00:46:36.695Z,18.87
2018-07-20T00:47:36.695Z,18.86
2018-07-20T00:48:36.688Z,18.76
2018-07-20T00:49:36.688Z,18.90
2018-07-20T00:50:36.687Z,18.82
2018-07-20T00:51:36.681Z,18.79
2018-07-20T00:52:36.685Z,18.70
2018-07-20T00:53:36.685Z,18.79
2018-07-20T00:54:36.680Z,18.68
2018-07-20T00:55:36.682Z,18.65
2018-07-20T00:56:36.681Z,18.65
2018-07-20T00:57:36.675Z,18.65
2018-07-20T00:58:36.674Z,18.62
2018-07-20T00:59:36.672Z,18.52
2018-07-20T01:00:36.671Z,18.54
2018-07-20T01:01:36.731Z,18.57
2018-07-20T01:02:36.725Z,18.54
2018-07-20T01:03:36.664Z,18.49
2018-07-20T01:04:36.663Z,18.43
2018-07-20T01:05:36.669Z,18.44
2018-07-20T01:06:36.660Z,18.44
2018-07-20T01:07:36.674Z,18.39
2018-07-20T01:08:36.655Z,18.34
2018-07-20T01:09:36.653Z,18.34
2018-07-20T01:10:36.651Z,18.28
2018-07-20T01:11:36.655Z,18.25
2018-07-20T01:12:36.650Z,18.27
2018-07-20T01:13:36.647Z,18.21
2018-07-20T01:14:36.644Z,18.15
2018-07-20T01:15:36.643Z,18.10
2018-07-20T01:16:36.651Z,18.12
2018-07-20T01:17:36.641Z,18.00
2018-07-20T01:18:36.645Z,18.09
2018-07-20T01:19:36.634Z,18.07
2018-07-20T01:20:36.634Z,18.17
2018-07-20T01:21:36.632Z,18.18
2018-07-20T01:22:36.630Z,18.09
2018-07-20T01:23:36.631Z,18.07
2018-07-20T01:24:36.627Z,18.22
2018-07-20T01:25:36.626Z,18.18
2018-07-20T01:26:36.626Z,18.19
2018-07-20T01:27:36.622Z,18.04
2018-07-20T01:28:36.616Z,17.97
2018-07-20T01:29:36.617Z,18.04
2018-07-20T01:30:36.611Z,17.94
2018-07-20T02:04:59.447Z,17.47
2018-07-20T02:05:59.425Z,17.53
2018-07-20T02:07:52.353Z,17.50
2018-07-20T02:08:52.328Z,17.50
2018-07-20T02:10:45.234Z,17.55
2018-07-20T02:11:45.209Z,17.55
2018-07-20T02:13:38.135Z,17.67
2018-07-20T02:14:38.126Z,17.64
2018-07-20T02:16:31.069Z,17.64
2018-07-20T02:17:31.051Z,17.62
2018-07-20T02:19:23.953Z,17.53
2018-07-20T02:20:23.936Z,17.51
2018-07-20T02:22:16.899Z,17.55
2018-07-20T02:23:16.870Z,17.50
2018-07-20T02:25:09.841Z,17.47
2018-07-20T02:26:09.819Z,17.48
2018-07-20T02:28:02.756Z,17.47
2018-07-20T02:29:02.737Z,17.41
2018-07-20T02:30:55.654Z,17.40
2018-07-20T02:31:55.643Z,17.36
2018-07-20T02:33:48.577Z,17.40
2018-07-20T02:34:48.568Z,17.28
2018-07-20T02:36:41.519Z,17.32
2018-07-20T02:37:41.499Z,17.15
2018-07-20T02:39:34.452Z,17.30
2018-07-20T02:40:34.443Z,17.25
2018-07-20T02:42:27.418Z,17.22
2018-07-20T02:43:27.397Z,17.15
2018-07-20T02:45:20.361Z,17.15
2018-07-20T02:46:20.359Z,17.14
2018-07-20T02:48:13.254Z,17.15
2018-07-20T02:49:13.235Z,17.10
2018-07-20T02:51:06.195Z,17.14
2018-07-20T02:52:06.162Z,17.17
2018-07-20T02:53:59.120Z,17.14
2018-07-20T02:54:59.108Z,17.11
2018-07-20T02:56:52.129Z,17.18
2018-07-20T02:57:52.112Z,17.11
2018-07-20T02:59:45.065Z,17.13
2018-07-20T03:00:45.053Z,17.11
2018-07-20T03:02:37.971Z,16.99
2018-07-20T03:03:37.942Z,17.04
2018-07-20T03:05:30.835Z,17.00
2018-07-20T03:06:30.828Z,16.92
2018-07-20T03:08:23.765Z,16.93
2018-07-20T03:09:23.746Z,16.96
2018-07-20T03:11:16.694Z,17.04
2018-07-20T03:12:16.669Z,17.00
2018-07-20T03:14:09.643Z,17.03
2018-07-20T03:15:09.622Z,16.93
2018-07-20T03:17:02.599Z,16.93
2018-07-20T03:18:02.573Z,16.92
2018-07-20T03:19:55.534Z,16.83
2018-07-20T03:20:55.536Z,16.85
2018-07-20T03:22:48.552Z,16.88
2018-07-20T03:23:48.528Z,16.81
2018-07-20T03:25:41.518Z,16.89
2018-07-20T03:26:41.502Z,16.80
2018-07-20T03:28:34.474Z,16.78
2018-07-20T03:29:34.452Z,16.85
2018-07-20T03:31:27.455Z,16.85
2018-07-20T03:32:27.443Z,16.74
2018-07-20T03:34:20.369Z,16.75
2018-07-20T03:35:20.350Z,16.70
2018-07-20T03:37:13.265Z,16.68
2018-07-20T03:38:13.245Z,16.71
2018-07-20T03:40:06.190Z,16.65
2018-07-20T03:41:06.192Z,16.71
2018-07-20T03:42:59.161Z,16.63
2018-07-20T03:43:59.135Z,16.77
2018-07-20T03:45:52.123Z,16.78
2018-07-20T03:46:52.112Z,16.80
2018-07-20T03:48:45.162Z,16.83
2018-07-20T03:49:45.141Z,16.83
2018-07-20T03:51:38.116Z,16.89
2018-07-20T03:52:38.103Z,16.80
2018-07-20T03:54:31.070Z,16.83
2018-07-20T03:55:31.050Z,16.83
2018-07-20T03:57:23.987Z,16.78
2018-07-20T03:58:23.974Z,16.74
2018-07-20T04:00:16.916Z,16.75
2018-07-20T04:01:16.907Z,16.92
2018-07-20T04:03:09.862Z,16.88
2018-07-20T04:04:09.844Z,16.95
2018-07-20T04:06:02.763Z,17.00
2018-07-20T04:07:02.741Z,17.10
2018-07-20T04:08:55.740Z,17.13
2018-07-20T04:09:55.717Z,17.10
2018-07-20T04:11:48.662Z,17.28
2018-07-20T04:12:48.650Z,17.26
2018-07-20T04:14:41.630Z,17.25
2018-07-20T04:15:41.609Z,17.36
2018-07-20T04:17:34.531Z,17.47
2018-07-20T04:18:34.509Z,17.46
2018-07-20T04:20:27.485Z,17.50
2018-07-20T04:21:27.474Z,17.47
2018-07-20T04:23:20.409Z,17.59
2018-07-20T04:24:20.382Z,17.62
2018-07-20T04:26:13.276Z,17.69
2018-07-20T04:27:13.256Z,17.67
2018-07-20T04:29:06.171Z,17.67
2018-07-20T04:30:06.157Z,17.71
2018-07-20T04:31:59.185Z,17.74
2018-07-20T04:32:59.171Z,17.79
2018-07-20T04:34:52.148Z,17.74
2018-07-20T04:35:52.072Z,17.70
2018-07-20T04:37:45.000Z,17.79
2018-07-20T04:38:44.970Z,17.91
2018-07-20T04:40:37.906Z,18.00
2018-07-20T04:41:37.888Z,18.04
2018-07-20T04:43:30.845Z,18.21
2018-07-20T04:44:30.826Z,18.24
2018-07-20T04:46:23.725Z,18.37
2018-07-20T04:47:23.716Z,18.39
2018-07-20T04:49:16.695Z,18.50
2018-07-20T04:50:16.677Z,18.50
2018-07-20T04:52:09.600Z,18.82
2018-07-20T04:53:09.584Z,18.91
2018-07-20T04:55:02.601Z,18.97
2018-07-20T04:56:02.583Z,19.11
2018-07-20T04:57:55.508Z,19.24
2018-07-20T04:58:55.554Z,19.25
2018-07-20T05:00:48.428Z,19.24
2018-07-20T05:01:48.416Z,19.32
2018-07-20T05:03:41.384Z,19.29
2018-07-20T05:04:41.367Z,19.36
2018-07-20T05:06:34.304Z,19.61
2018-07-20T05:07:34.296Z,19.61
2018-07-20T05:09:27.260Z,19.65
2018-07-20T05:10:27.241Z,19.70
2018-07-20T05:12:20.151Z,19.68
2018-07-20T05:13:20.143Z,19.69
2018-07-20T05:15:13.113Z,19.73
2018-07-20T05:16:13.101Z,19.87
2018-07-20T05:18:06.113Z,19.79
2018-07-20T05:19:06.090Z,19.76
2018-07-20T05:20:59.116Z,19.86
2018-07-20T05:21:59.094Z,20.10
2018-07-20T05:22:59.097Z,20.15
2018-07-20T05:23:59.098Z,20.21
2018-07-20T05:24:59.109Z,20.35
2018-07-20T05:25:59.096Z,20.39
2018-07-20T05:26:59.098Z,20.42
2018-07-20T05:27:59.094Z,20.35
2018-07-20T05:28:59.095Z,20.46
2018-07-20T05:29:59.096Z,20.34
2018-07-20T05:30:59.199Z,20.23
2018-07-20T05:31:59.101Z,20.27
2018-07-20T05:32:59.100Z,20.15
2018-07-20T05:33:59.102Z,20.21
2018-07-20T05:34:59.338Z,20.21
2018-07-20T05:35:59.102Z,20.08
2018-07-20T05:36:59.107Z,20.12
2018-07-20T05:37:59.108Z,19.98
2018-07-20T05:38:59.105Z,20.08
2018-07-20T05:39:59.108Z,19.94
2018-07-20T05:40:59.108Z,19.80
2018-07-20T05:41:59.108Z,19.84
2018-07-20T05:42:59.110Z,19.97
2018-07-20T05:43:59.140Z,20.02
2018-07-20T05:44:59.115Z,20.21
2018-07-20T05:45:59.113Z,20.20
2018-07-20T05:46:59.117Z,20.20
2018-07-20T05:47:59.124Z,20.21
2018-07-20T05:48:59.124Z,20.31
2018-07-20T05:49:59.119Z,20.31
2018-07-20T05:50:59.146Z,20.54
2018-07-20T05:51:59.125Z,20.54
2018-07-20T05:52:59.119Z,20.49
2018-07-20T05:53:59.123Z,20.56
2018-07-20T05:54:59.124Z,20.49
2018-07-20T05:55:59.125Z,20.43
2018-07-20T05:56:59.127Z,20.56
2018-07-20T05:57:59.131Z,20.56
2018-07-20T05:58:59.127Z,20.50
2018-07-20T05:59:59.129Z,20.47
2018-07-20T06:00:59.129Z,20.66
2018-07-20T06:01:59.132Z,20.99
2018-07-20T06:02:59.136Z,21.11
2018-07-20T06:03:59.141Z,21.35
2018-07-20T06:04:59.137Z,21.35
2018-07-20T06:05:59.136Z,21.61
2018-07-20T06:06:59.138Z,21.82
2018-07-20T06:07:59.138Z,21.91
2018-07-20T06:08:59.140Z,22.06
2018-07-20T06:09:59.151Z,22.10
2018-07-20T06:10:59.144Z,22.20
2018-07-20T06:11:59.141Z,22.20
2018-07-20T06:12:59.147Z,22.37
2018-07-20T06:13:59.151Z,22.46
2018-07-20T06:14:59.154Z,22.43
2018-07-20T06:15:59.151Z,22.54
2018-07-20T06:16:59.156Z,22.32
2018-07-20T06:17:59.159Z,22.46
2018-07-20T06:18:59.196Z,22.44
2018-07-20T06:19:59.160Z,22.44
2018-07-20T06:20:59.167Z,22.47
2018-07-20T06:21:59.163Z,22.78
2018-07-20T06:22:59.196Z,22.90
2018-07-20T06:23:59.197Z,22.94
2018-07-20T06:24:59.170Z,23.12
2018-07-20T06:25:59.181Z,23.34
2018-07-20T06:26:59.176Z,23.26
2018-07-20T06:27:59.179Z,23.34
2018-07-20T06:28:59.181Z,23.53
2018-07-20T06:29:59.189Z,23.82
2018-07-20T06:30:59.190Z,23.57
2018-07-20T06:31:59.191Z,23.38
2018-07-20T06:32:59.194Z,23.34
2018-07-20T06:33:59.196Z,23.20
2018-07-20T06:34:59.200Z,23.15
2018-07-20T06:35:59.201Z,23.17
2018-07-20T06:36:59.204Z,23.14
2018-07-20T06:37:59.208Z,23.02
2018-07-20T06:38:59.217Z,23.26
2018-07-20T06:39:59.214Z,23.29
2018-07-20T06:40:59.222Z,23.68
2018-07-20T06:41:59.211Z,23.95
2018-07-20T06:42:59.227Z,24.02
2018-07-20T06:43:59.222Z,24.39
2018-07-20T06:44:59.232Z,24.56
2018-07-20T06:45:59.237Z,24.87
2018-07-20T06:46:59.241Z,24.75
2018-07-20T06:47:59.254Z,24.29
2018-07-20T06:48:59.246Z,24.22
2018-07-20T06:49:59.251Z,24.34
2018-07-20T06:50:59.262Z,24.29
2018-07-20T06:51:59.255Z,24.60
2018-07-20T06:52:59.259Z,24.71
2018-07-20T06:53:59.264Z,24.75
2018-07-20T06:54:59.268Z,24.98
2018-07-20T06:55:59.278Z,25.44
2018-07-20T06:56:59.273Z,25.91
2018-07-20T06:57:59.277Z,26.05
2018-07-20T06:58:59.284Z,26.42
2018-07-20T06:59:59.288Z,26.68
2018-07-20T07:00:59.291Z,26.21
2018-07-20T07:01:59.297Z,25.87
2018-07-20T07:02:59.301Z,26.08
2018-07-20T07:03:59.310Z,26.35
2018-07-20T07:04:59.310Z,26.40
2018-07-20T07:05:59.316Z,26.15
2018-07-20T07:06:59.314Z,26.32
2018-07-20T07:07:59.325Z,26.73
2018-07-20T07:08:59.331Z,27.05
2018-07-20T07:09:59.329Z,27.73
2018-07-20T07:10:59.337Z,28.23
2018-07-20T07:11:59.338Z,28.77
2018-07-20T07:12:59.352Z,29.44
2018-07-20T07:13:59.350Z,29.89
2018-07-20T07:14:59.434Z,30.29
2018-07-20T07:15:59.361Z,30.65
2018-07-20T07:16:59.364Z,29.75
2018-07-20T07:17:59.370Z,29.79
2018-07-20T07:18:59.379Z,29.16
2018-07-20T07:19:59.384Z,28.87
2018-07-20T07:20:59.392Z,29.75
2018-07-20T07:21:59.402Z,29.90
2018-07-20T07:22:59.411Z,30.53
2018-07-20T07:23:59.418Z,31.28
2018-07-20T07:24:59.430Z,31.54
2018-07-20T07:25:59.523Z,31.95
2018-07-20T07:26:59.448Z,32.27
2018-07-20T07:27:59.455Z,32.20
2018-07-20T07:28:59.471Z,31.92
2018-07-20T07:29:59.478Z,32.10
2018-07-20T07:30:59.495Z,32.61
2018-07-20T07:31:59.499Z,33.11
2018-07-20T07:32:59.516Z,33.48
2018-07-20T07:33:59.525Z,33.48
2018-07-20T07:34:59.543Z,32.43
2018-07-20T07:35:59.556Z,32.86
2018-07-20T07:36:59.566Z,32.59
2018-07-20T07:37:59.580Z,31.53
2018-07-20T07:38:59.593Z,31.50
2018-07-20T07:39:59.608Z,31.87
2018-07-20T07:40:59.619Z,32.20
2018-07-20T07:41:59.637Z,32.61
2018-07-20T07:42:59.650Z,32.54
2018-07-20T07:43:59.665Z,33.08
2018-07-20T07:44:59.680Z,33.60
2018-07-20T07:45:59.691Z,33.01
2018-07-20T07:46:59.708Z,33.04
2018-07-20T07:47:59.721Z,32.58
2018-07-20T07:48:59.741Z,32.80
2018-07-20T07:49:59.755Z,33.13
2018-07-20T07:50:59.774Z,34.09
2018-07-20T07:51:59.786Z,34.27
2018-07-20T07:52:59.799Z,34.27
2018-07-20T07:53:59.814Z,34.92
2018-07-20T07:54:59.831Z,34.44
2018-07-20T07:55:59.848Z,33.03
2018-07-20T07:56:59.863Z,32.13
2018-07-20T07:57:59.877Z,32.40
2018-07-20T07:58:59.893Z,31.88
2018-07-20T07:59:59.909Z,32.00
2018-07-20T08:00:59.928Z,32.43
2018-07-20T08:01:59.942Z,33.14
2018-07-20T08:02:59.954Z,32.66
2018-07-20T08:03:59.982Z,32.25
2018-07-20T08:04:59.990Z,33.06
2018-07-20T08:06:00.019Z,33.94
2018-07-20T08:07:00.027Z,34.60
2018-07-20T08:08:00.041Z,34.53
2018-07-20T08:09:00.056Z,34.94
2018-07-20T08:10:00.261Z,35.15
2018-07-20T08:11:00.089Z,35.36
2018-07-20T08:12:00.109Z,35.55
2018-07-20T08:13:00.122Z,35.17
2018-07-20T08:14:00.142Z,34.31
2018-07-20T08:15:00.159Z,34.00
2018-07-20T08:16:00.173Z,33.08
2018-07-20T08:17:00.194Z,32.89
2018-07-20T08:18:00.209Z,32.62
2018-07-20T08:19:00.228Z,33.48
2018-07-20T08:20:00.244Z,33.97
2018-07-20T08:21:00.266Z,33.57
2018-07-20T08:22:00.277Z,32.89
2018-07-20T08:23:00.353Z,33.46
2018-07-20T08:24:00.317Z,34.41
2018-07-20T08:25:00.331Z,34.79
2018-07-20T08:26:00.349Z,35.29
2018-07-20T08:27:00.364Z,35.79
2018-07-20T08:28:00.382Z,35.47
2018-07-20T08:29:00.399Z,35.51
2018-07-20T08:30:00.448Z,36.52
2018-07-20T08:31:00.439Z,36.76
2018-07-20T08:32:00.456Z,36.61
2018-07-20T08:33:00.476Z,36.36
2018-07-20T08:34:00.494Z,35.45
2018-07-20T08:35:00.510Z,33.64
2018-07-20T08:36:00.527Z,33.89
2018-07-20T08:37:00.543Z,33.82
2018-07-20T08:38:00.596Z,33.57
2018-07-20T08:39:00.585Z,33.57
2018-07-20T08:40:00.603Z,34.00
2018-07-20T08:41:00.607Z,33.86
2018-07-20T08:42:00.635Z,33.45
2018-07-20T08:43:00.646Z,33.03
2018-07-20T08:44:00.665Z,32.15
2018-07-20T08:45:00.679Z,32.55
2018-07-20T08:46:00.694Z,33.39
2018-07-20T08:47:00.708Z,33.97
2018-07-20T08:48:00.722Z,32.85
2018-07-20T08:49:00.741Z,32.03
2018-07-20T08:50:00.753Z,32.95
2018-07-20T08:51:00.773Z,33.27
2018-07-20T08:52:00.786Z,33.30
2018-07-20T08:53:00.800Z,33.39
2018-07-20T08:54:00.821Z,31.77
2018-07-20T08:55:00.832Z,30.14
2018-07-20T08:56:00.851Z,30.30
2018-07-20T08:57:00.862Z,29.86
2018-07-20T08:58:00.872Z,30.07
2018-07-20T08:59:00.911Z,29.79
2018-07-20T09:00:00.968Z,30.00
2018-07-20T09:01:00.918Z,29.49
2018-07-20T09:02:00.932Z,29.74
2018-07-20T09:03:00.948Z,29.89
2018-07-20T09:04:00.960Z,30.09
2018-07-20T09:05:00.972Z,30.37
2018-07-20T09:06:00.987Z,30.36
2018-07-20T09:07:01.000Z,30.80
2018-07-20T09:08:01.014Z,30.65
2018-07-20T09:09:01.027Z,31.53
2018-07-20T09:10:01.040Z,31.45
2018-07-20T09:11:01.058Z,32.33
2018-07-20T09:12:22.087Z,33.15
2018-07-20T09:13:01.079Z,34.38
2018-07-20T09:14:01.108Z,34.74
2018-07-20T09:15:01.106Z,34.96
2018-07-20T09:16:01.126Z,35.47
2018-07-20T09:17:01.138Z,35.14
2018-07-20T09:18:01.159Z,34.44
2018-07-20T09:19:01.174Z,33.82
2018-07-20T09:20:01.187Z,35.03
2018-07-20T09:21:01.229Z,34.58
2018-07-20T09:22:01.220Z,35.99
2018-07-20T09:23:01.243Z,36.35
2018-07-20T09:24:01.267Z,35.45
2018-07-20T09:25:01.274Z,36.17
2018-07-20T09:26:01.291Z,36.46
2018-07-20T09:27:01.311Z,35.29
2018-07-20T09:28:01.328Z,35.13
2018-07-20T09:29:01.347Z,35.02
2018-07-20T09:30:01.364Z,35.18
2018-07-20T09:31:01.385Z,34.98
2018-07-20T09:32:01.395Z,34.58
2018-07-20T09:33:01.406Z,33.65
2018-07-20T09:34:01.486Z,33.51
2018-07-20T09:35:01.448Z,34.20
2018-07-20T09:36:01.465Z,35.13
2018-07-20T09:37:01.480Z,34.00
2018-07-20T09:38:01.493Z,33.90
2018-07-20T09:39:01.511Z,34.16
2018-07-20T09:40:01.530Z,32.86
2018-07-20T09:41:01.546Z,32.39
2018-07-20T09:42:01.563Z,32.44
2018-07-20T09:43:01.580Z,32.55
2018-07-20T09:44:01.593Z,32.25
2018-07-20T09:45:01.615Z,32.05
2018-07-20T09:46:01.633Z,31.80
2018-07-20T09:47:01.646Z,31.60
2018-07-20T09:48:01.656Z,31.55
2018-07-20T09:49:01.733Z,31.93
2018-07-20T09:50:01.690Z,31.40
2018-07-20T09:51:01.709Z,31.85
2018-07-20T09:52:01.727Z,31.15
2018-07-20T09:53:01.732Z,30.98
2018-07-20T09:54:01.745Z,31.26
2018-07-20T09:55:01.759Z,31.80
2018-07-20T09:56:01.777Z,32.07
2018-07-20T09:57:01.786Z,31.98
2018-07-20T09:58:01.805Z,31.12
2018-07-20T09:59:01.827Z,31.15
2018-07-20T10:00:01.824Z,30.75
2018-07-20T10:01:01.843Z,32.29
2018-07-20T10:02:01.859Z,33.15
2018-07-20T10:03:01.861Z,34.36
2018-07-20T10:04:01.875Z,34.09
2018-07-20T10:05:01.939Z,34.57
2018-07-20T10:06:01.905Z,34.31
2018-07-20T10:07:01.917Z,33.39
2018-07-20T10:08:01.932Z,33.90
2018-07-20T10:09:01.948Z,33.86
2018-07-20T10:10:01.964Z,35.15
2018-07-20T10:11:01.982Z,35.91
2018-07-20T10:12:02.000Z,35.55
2018-07-20T10:13:02.015Z,35.10
2018-07-20T10:14:02.029Z,34.89
2018-07-20T10:15:02.048Z,35.69
2018-07-20T10:16:02.985Z,36.76
2018-07-20T10:17:02.091Z,37.59
2018-07-20T10:18:02.098Z,37.26
2018-07-20T10:19:02.121Z,36.76
2018-07-20T10:20:02.133Z,35.99
2018-07-20T10:21:02.150Z,35.14
2018-07-20T10:22:02.173Z,34.39
2018-07-20T10:23:02.206Z,34.86
2018-07-20T10:24:02.212Z,34.58
2018-07-20T10:25:02.231Z,35.10
2018-07-20T10:26:02.254Z,35.29
2018-07-20T10:27:02.280Z,35.76
2018-07-20T10:28:02.293Z,36.31
2018-07-20T10:29:02.307Z,34.83
2018-07-20T10:30:02.325Z,34.53
2018-07-20T10:31:02.349Z,35.79
2018-07-20T10:32:02.368Z,35.70
2018-07-20T10:33:02.391Z,35.36
2018-07-20T10:34:02.405Z,35.39
2018-07-20T10:35:02.437Z,35.81
2018-07-20T10:36:02.443Z,35.93
2018-07-20T10:37:02.467Z,36.67
2018-07-20T10:38:02.484Z,36.65
2018-07-20T10:39:02.505Z,36.19
2018-07-20T10:40:02.528Z,35.72
2018-07-20T10:41:02.550Z,35.66
2018-07-20T10:42:02.565Z,36.21
2018-07-20T10:43:02.608Z,36.12
2018-07-20T10:44:02.602Z,36.19
2018-07-20T10:45:02.655Z,36.04
2018-07-20T10:46:02.645Z,35.40
2018-07-20T10:47:02.697Z,34.80
2018-07-20T10:48:02.683Z,33.80
2018-07-20T10:49:02.706Z,35.15
2018-07-20T10:50:02.724Z,36.19
2018-07-20T10:51:02.746Z,35.57
2018-07-20T10:52:02.769Z,35.39
2018-07-20T10:53:02.797Z,36.21
2018-07-20T10:54:02.807Z,36.76
2018-07-20T10:55:02.824Z,35.89
2018-07-20T10:56:02.843Z,34.70
2018-07-20T10:57:02.866Z,35.36
2018-07-20T10:58:02.888Z,35.55
2018-07-20T10:59:02.902Z,35.20
2018-07-20T11:00:02.925Z,35.52
2018-07-20T11:01:02.944Z,35.57
2018-07-20T11:02:02.964Z,35.99
2018-07-20T11:03:02.988Z,35.93
2018-07-20T11:04:03.004Z,35.62
2018-07-20T11:05:03.023Z,36.20
2018-07-20T11:06:03.042Z,35.01
2018-07-20T11:07:03.066Z,34.39
2018-07-20T11:08:03.156Z,34.69
2018-07-20T11:09:03.112Z,34.66
2018-07-20T11:10:03.123Z,35.44
2018-07-20T11:11:03.142Z,36.23
2018-07-20T11:12:03.160Z,36.61
2018-07-20T11:13:03.182Z,36.45
2018-07-20T11:14:03.199Z,36.97
2018-07-20T11:15:03.228Z,36.58
2018-07-20T11:16:03.239Z,36.12
2018-07-20T11:17:03.260Z,36.70
2018-07-20T11:18:03.280Z,36.77
2018-07-20T11:19:03.298Z,35.30
2018-07-20T11:20:03.321Z,35.20
2018-07-20T11:21:03.343Z,35.21
2018-07-20T11:22:03.360Z,35.17
2018-07-20T11:23:03.380Z,34.69
2018-07-20T11:24:03.403Z,35.30
2018-07-20T11:25:03.418Z,34.74
2018-07-20T11:26:03.437Z,34.84
2018-07-20T11:27:03.457Z,35.95
2018-07-20T11:28:03.497Z,36.45
2018-07-20T11:29:03.497Z,36.01
2018-07-20T11:30:03.516Z,36.46
2018-07-20T11:31:03.537Z,36.06
2018-07-20T11:32:03.555Z,36.75
2018-07-20T11:33:03.576Z,37.50
2018-07-20T11:34:03.596Z,37.76
2018-07-20T11:35:03.622Z,37.89
2018-07-20T11:36:03.633Z,38.42
2018-07-20T11:37:03.652Z,36.79
2018-07-20T11:38:03.676Z,34.89
2018-07-20T11:39:03.691Z,34.09
2018-07-20T11:40:03.711Z,33.89
2018-07-20T11:41:03.726Z,34.31
2018-07-20T11:42:03.751Z,33.94
2018-07-20T11:43:03.765Z,33.51
2018-07-20T11:44:03.781Z,33.49
2018-07-20T11:45:03.799Z,33.65
2018-07-20T11:46:03.818Z,33.45
2018-07-20T11:47:03.835Z,34.32
2018-07-20T11:48:03.853Z,34.88
2018-07-20T11:49:03.872Z,33.95
2018-07-20T11:50:03.893Z,34.02
2018-07-20T11:51:03.909Z,33.92
2018-07-20T11:52:03.923Z,34.57
2018-07-20T11:53:03.945Z,35.02
2018-07-20T11:54:03.961Z,35.48
2018-07-20T11:55:04.001Z,35.48
2018-07-20T11:56:04.073Z,35.07
2018-07-20T11:57:04.015Z,35.30
2018-07-20T11:58:04.032Z,35.91
2018-07-20T11:59:04.062Z,35.52
2018-07-20T12:00:04.072Z,35.06
2018-07-20T12:01:04.091Z,34.99
2018-07-20T12:02:04.116Z,35.17
2018-07-20T12:03:04.130Z,36.11
2018-07-20T12:04:04.147Z,36.12
2018-07-20T12:05:04.166Z,36.43
2018-07-20T12:06:04.183Z,36.35
2018-07-20T12:07:04.209Z,35.33
2018-07-20T12:08:04.236Z,35.26
2018-07-20T12:09:04.243Z,35.30
2018-07-20T12:10:04.280Z,35.06
2018-07-20T12:11:04.278Z,35.88
2018-07-20T12:12:04.298Z,36.49
2018-07-20T12:13:04.317Z,36.91
2018-07-20T12:14:04.340Z,37.85
2018-07-20T12:15:04.357Z,38.27
2018-07-20T12:16:04.374Z,38.61
2018-07-20T12:17:04.397Z,38.44
2018-07-20T12:18:04.413Z,38.53
2018-07-20T12:19:04.430Z,38.38
2018-07-20T12:20:04.452Z,38.46
2018-07-20T12:21:04.477Z,38.55
2018-07-20T12:22:04.496Z,38.70
2018-07-20T12:23:04.502Z,38.73
2018-07-20T12:24:04.529Z,38.85
2018-07-20T12:25:04.557Z,38.42
2018-07-20T12:26:04.557Z,38.15
2018-07-20T12:27:04.585Z,37.70
2018-07-20T12:28:04.611Z,36.33
2018-07-20T12:29:04.630Z,35.74
2018-07-20T12:30:04.649Z,35.62
2018-07-20T12:31:04.666Z,35.18
2018-07-20T12:32:04.689Z,34.81
2018-07-20T12:33:04.707Z,34.58
2018-07-20T12:34:04.768Z,34.58
2018-07-20T12:35:04.746Z,34.35
2018-07-20T12:36:04.768Z,34.05
2018-07-20T12:37:04.784Z,34.04
2018-07-20T12:38:04.804Z,34.08
2018-07-20T12:39:04.823Z,34.27
2018-07-20T12:40:04.846Z,34.27
2018-07-20T12:41:04.862Z,34.41
2018-07-20T12:42:04.893Z,34.09
2018-07-20T12:43:04.896Z,34.09
2018-07-20T12:44:04.918Z,34.35
2018-07-20T12:45:04.931Z,34.00
2018-07-20T12:46:04.948Z,33.65
2018-07-20T12:47:04.964Z,33.61
2018-07-20T12:48:04.977Z,33.48
2018-07-20T12:49:04.994Z,33.64
2018-07-20T12:50:05.027Z,33.64
2018-07-20T12:51:05.022Z,33.20
2018-07-20T12:52:05.040Z,32.84
2018-07-20T12:53:05.049Z,32.80
2018-07-20T12:54:05.063Z,33.14
2018-07-20T12:55:05.081Z,33.06
2018-07-20T12:56:05.089Z,32.76
2018-07-20T12:57:05.101Z,33.10
2018-07-20T12:58:05.152Z,33.15
2018-07-20T12:59:05.153Z,32.80
2018-07-20T13:00:05.136Z,32.76
2018-07-20T13:01:05.149Z,32.96
2018-07-20T13:02:05.168Z,33.15
2018-07-20T13:03:05.176Z,33.67
2018-07-20T13:04:05.183Z,34.04
2018-07-20T13:05:05.193Z,33.90
2018-07-20T13:06:05.208Z,33.89
2018-07-20T13:07:05.217Z,34.19
2018-07-20T13:08:05.230Z,34.24
2018-07-20T13:09:05.241Z,34.16
2018-07-20T13:10:05.253Z,34.17
2018-07-20T13:11:05.258Z,33.95
2018-07-20T13:12:05.405Z,33.94
2018-07-20T13:13:05.338Z,33.89
2018-07-20T13:14:05.407Z,33.86
2018-07-20T13:15:05.306Z,33.97
2018-07-20T13:16:05.309Z,33.95
2018-07-20T13:17:05.327Z,34.11
2018-07-20T13:18:05.406Z,34.08
2018-07-20T13:19:05.344Z,33.92
2018-07-20T13:20:05.362Z,33.94
2018-07-20T13:21:05.363Z,33.65
2018-07-20T13:22:05.374Z,33.49
2018-07-20T13:23:05.387Z,33.29
2018-07-20T13:24:05.391Z,32.86
2018-07-20T13:25:05.401Z,33.07
2018-07-20T13:26:05.414Z,32.51
2018-07-20T13:27:05.423Z,32.25
2018-07-20T13:28:05.434Z,31.64
2018-07-20T13:29:05.446Z,31.46
2018-07-20T13:30:05.454Z,31.26
2018-07-20T13:31:05.461Z,29.99
2018-07-20T13:32:05.472Z,29.13
2018-07-20T13:33:05.481Z,28.68
2018-07-20T13:34:05.487Z,28.47
2018-07-20T13:35:05.501Z,28.22
2018-07-20T13:36:05.516Z,28.29
2018-07-20T13:37:05.519Z,28.31
2018-07-20T13:38:05.522Z,28.09
2018-07-20T13:39:05.540Z,27.95
2018-07-20T13:40:05.549Z,27.95
2018-07-20T13:41:05.553Z,27.53
2018-07-20T13:42:05.564Z,27.43
2018-07-20T13:43:05.575Z,27.46
2018-07-20T13:44:05.577Z,27.48
2018-07-20T13:45:05.582Z,27.28
2018-07-20T13:46:05.592Z,27.06
2018-07-20T13:47:05.597Z,27.04
2018-07-20T13:48:05.604Z,27.10
2018-07-20T13:49:06.438Z,27.10
2018-07-20T13:50:05.619Z,27.23
2018-07-20T13:51:05.628Z,27.32
2018-07-20T13:52:05.625Z,27.21
2018-07-20T13:53:05.688Z,27.06
2018-07-20T13:54:05.645Z,27.13
2018-07-20T13:55:05.659Z,27.06
2018-07-20T13:56:05.663Z,26.96
2018-07-20T13:57:05.670Z,26.86
2018-07-20T13:58:05.676Z,26.73
2018-07-20T13:59:05.681Z,26.91
2018-07-20T14:00:05.695Z,26.74
2018-07-20T14:01:05.685Z,26.77
2018-07-20T14:02:05.698Z,26.91
2018-07-20T14:03:05.714Z,26.99
2018-07-20T14:04:05.711Z,27.09
2018-07-20T14:05:05.724Z,26.73
2018-07-20T14:06:05.725Z,26.86
2018-07-20T14:07:05.745Z,26.84
2018-07-20T14:08:05.752Z,26.68
2018-07-20T14:09:05.739Z,26.76
2018-07-20T14:10:05.769Z,27.05
2018-07-20T14:11:05.756Z,27.01
2018-07-20T14:12:05.763Z,26.86
2018-07-20T14:13:05.769Z,26.91
2018-07-20T14:14:05.776Z,26.95
2018-07-20T14:15:05.789Z,27.11
2018-07-20T14:16:05.799Z,27.04
2018-07-20T14:17:05.790Z,27.16
2018-07-20T14:18:05.822Z,27.35
2018-07-20T14:19:05.812Z,27.53
2018-07-20T14:20:05.813Z,27.59
2018-07-20T14:21:05.819Z,27.70
2018-07-20T14:22:05.824Z,27.73
2018-07-20T14:23:05.837Z,27.82
2018-07-20T14:24:05.840Z,27.33
2018-07-20T14:25:05.844Z,27.38
2018-07-20T14:26:05.858Z,27.42